sensor_id;sensor_type;location;lat;lon;timestamp;pressure;altitude;pressure_sealevel;temperature;humidity
12785;BME280;6456;42.680;23.260;2023-02-12T00:00:07;95608.19;;;2.19;43.74
12785;BME280;6456;42.680;23.260;2023-02-12T00:02:35;95617.75;;;2.28;43.67
12785;BME280;6456;42.680;23.260;2023-02-12T00:05:02;95639.47;;;2.37;43.88
12785;BME280;6456;42.680;23.260;2023-02-12T00:07:29;95632.50;;;2.37;43.89
12785;BME280;6456;42.680;23.260;2023-02-12T00:09:56;95592.88;;;2.16;43.52
12785;BME280;6456;42.680;23.260;2023-02-12T00:12:25;95593.84;;;2.06;43.61
12785;BME280;6456;42.680;23.260;2023-02-12T00:14:52;95606.13;;;2.13;43.78
12785;BME280;6456;42.680;23.260;2023-02-12T00:17:19;95628.44;;;2.25;43.80
12785;BME280;6456;42.680;23.260;2023-02-12T00:19:46;95598.22;;;2.05;43.95
12785;BME280;6456;42.680;23.260;2023-02-12T00:22:13;95614.75;;;2.14;44.26
12785;BME280;6456;42.680;23.260;2023-02-12T00:24:40;95606.69;;;2.17;44.03
12785;BME280;6456;42.680;23.260;2023-02-12T00:27:07;95577.84;;;2.01;44.34
12785;BME280;6456;42.680;23.260;2023-02-12T00:29:35;95646.88;;;2.32;44.08
12785;BME280;6456;42.680;23.260;2023-02-12T00:32:02;95608.34;;;2.18;43.87
12785;BME280;6456;42.680;23.260;2023-02-12T00:34:32;95628.41;;;2.35;44.32
12785;BME280;6456;42.680;23.260;2023-02-12T00:36:59;95592.88;;;2.16;44.62
12785;BME280;6456;42.680;23.260;2023-02-12T00:39:26;95614.59;;;2.34;44.57
12785;BME280;6456;42.680;23.260;2023-02-12T00:41:53;95590.97;;;2.28;44.18
12785;BME280;6456;42.680;23.260;2023-02-12T00:44:20;95606.81;;;2.34;44.16
12785;BME280;6456;42.680;23.260;2023-02-12T00:46:48;95606.53;;;2.37;43.98
12785;BME280;6456;42.680;23.260;2023-02-12T00:49:18;95569.78;;;2.13;44.34
12785;BME280;6456;42.680;23.260;2023-02-12T00:51:45;95571.16;;;2.17;44.07
12785;BME280;6456;42.680;23.260;2023-02-12T00:54:12;95514.47;;;1.93;43.53
12785;BME280;6456;42.680;23.260;2023-02-12T00:56:40;95567.03;;;2.24;44.29
12785;BME280;6456;42.680;23.260;2023-02-12T00:59:06;95584.78;;;2.38;44.43
12785;BME280;6456;42.680;23.260;2023-02-12T01:01:34;95581.25;;;2.39;44.01
12785;BME280;6456;42.680;23.260;2023-02-12T01:04:02;95543.13;;;2.21;43.97
12785;BME280;6456;42.680;23.260;2023-02-12T01:06:29;95578.38;;;2.42;43.47
12785;BME280;6456;42.680;23.260;2023-02-12T01:08:57;95520.47;;;2.04;43.45
12785;BME280;6456;42.680;23.260;2023-02-12T01:11:23;95568.28;;;2.30;43.64
12785;BME280;6456;42.680;23.260;2023-02-12T01:13:50;95584.91;;;2.46;43.82
12785;BME280;6456;42.680;23.260;2023-02-12T01:16:20;95562.69;;;2.15;43.93
12785;BME280;6456;42.680;23.260;2023-02-12T01:18:47;95580.97;;;2.42;44.22
12785;BME280;6456;42.680;23.260;2023-02-12T01:21:18;95557.09;;;2.20;44.11
12785;BME280;6456;42.680;23.260;2023-02-12T01:23:46;95540.94;;;2.16;44.13
12785;BME280;6456;42.680;23.260;2023-02-12T01:26:14;95544.22;;;2.18;44.44
12785;BME280;6456;42.680;23.260;2023-02-12T01:28:43;95563.63;;;2.24;44.73
12785;BME280;6456;42.680;23.260;2023-02-12T01:31:14;95522.13;;;2.05;44.78
12785;BME280;6456;42.680;23.260;2023-02-12T01:33:42;95600.50;;;2.46;44.84
12785;BME280;6456;42.680;23.260;2023-02-12T01:36:10;95579.88;;;2.35;44.77
12785;BME280;6456;42.680;23.260;2023-02-12T01:38:38;95577.97;;;2.37;45.23
12785;BME280;6456;42.680;23.260;2023-02-12T01:41:07;95584.50;;;2.41;45.21
12785;BME280;6456;42.680;23.260;2023-02-12T01:43:35;95580.56;;;2.37;45.63
12785;BME280;6456;42.680;23.260;2023-02-12T01:46:04;95568.41;;;2.28;45.70
12785;BME280;6456;42.680;23.260;2023-02-12T01:48:34;95573.47;;;2.30;46.39
12785;BME280;6456;42.680;23.260;2023-02-12T01:51:03;95529.09;;;2.04;46.34
12785;BME280;6456;42.680;23.260;2023-02-12T01:53:33;95521.56;;;2.01;46.38
12785;BME280;6456;42.680;23.260;2023-02-12T01:56:04;95548.72;;;2.35;46.21
12785;BME280;6456;42.680;23.260;2023-02-12T01:58:35;95558.72;;;2.30;46.37
12785;BME280;6456;42.680;23.260;2023-02-12T02:01:06;95565.78;;;2.28;46.68
12785;BME280;6456;42.680;23.260;2023-02-12T02:03:35;95568.00;;;2.33;46.81
12785;BME280;6456;42.680;23.260;2023-02-12T02:06:07;95566.34;;;2.32;46.95
12785;BME280;6456;42.680;23.260;2023-02-12T02:08:36;95553.25;;;2.24;47.06
12785;BME280;6456;42.680;23.260;2023-02-12T02:11:06;95541.94;;;2.15;47.07
12785;BME280;6456;42.680;23.260;2023-02-12T02:13:47;95568.28;;;2.20;47.41
12785;BME280;6456;42.680;23.260;2023-02-12T02:16:33;95560.09;;;2.15;47.49
12785;BME280;6456;42.680;23.260;2023-02-12T02:19:03;95562.78;;;2.23;47.51
12785;BME280;6456;42.680;23.260;2023-02-12T02:21:54;95547.25;;;2.04;47.61
12785;BME280;6456;42.680;23.260;2023-02-12T02:24:40;95564.59;;;2.23;47.95
12785;BME280;6456;42.680;23.260;2023-02-12T02:27:18;95571.56;;;2.22;47.87
12785;BME280;6456;42.680;23.260;2023-02-12T02:30:20;95570.06;;;2.20;48.20
12785;BME280;6456;42.680;23.260;2023-02-12T02:32:55;95554.09;;;2.15;48.74
12785;BME280;6456;42.680;23.260;2023-02-12T02:35:27;95556.25;;;2.19;48.75
12785;BME280;6456;42.680;23.260;2023-02-12T02:38:06;95558.84;;;2.19;48.86
12785;BME280;6456;42.680;23.260;2023-02-12T02:40:48;95538.78;;;2.12;49.55
12785;BME280;6456;42.680;23.260;2023-02-12T02:43:21;95510.09;;;1.94;49.37
12785;BME280;6456;42.680;23.260;2023-02-12T02:45:53;95529.75;;;2.06;49.35
12785;BME280;6456;42.680;23.260;2023-02-12T02:48:23;95552.13;;;2.26;49.46
12785;BME280;6456;42.680;23.260;2023-02-12T02:50:55;95519.38;;;2.06;49.60
12785;BME280;6456;42.680;23.260;2023-02-12T02:53:27;95557.03;;;2.39;49.76
12785;BME280;6456;42.680;23.260;2023-02-12T02:55:58;95561.69;;;2.45;50.00
12785;BME280;6456;42.680;23.260;2023-02-12T02:58:31;95538.06;;;2.19;50.00
12785;BME280;6456;42.680;23.260;2023-02-12T03:01:05;95552.00;;;2.37;50.28
12785;BME280;6456;42.680;23.260;2023-02-12T03:03:35;95556.50;;;2.35;50.92
12785;BME280;6456;42.680;23.260;2023-02-12T03:06:08;95556.22;;;2.38;50.57
12785;BME280;6456;42.680;23.260;2023-02-12T03:08:39;95566.31;;;2.41;50.79
12785;BME280;6456;42.680;23.260;2023-02-12T03:11:14;95562.50;;;2.45;50.85
12785;BME280;6456;42.680;23.260;2023-02-12T03:13:47;95569.22;;;2.48;51.06
12785;BME280;6456;42.680;23.260;2023-02-12T03:16:19;95505.28;;;2.18;51.16
12785;BME280;6456;42.680;23.260;2023-02-12T03:18:52;95542.69;;;2.44;51.16
12785;BME280;6456;42.680;23.260;2023-02-12T03:21:25;95561.78;;;2.63;51.10
12785;BME280;6456;42.680;23.260;2023-02-12T03:23:58;95551.00;;;2.57;50.82
12785;BME280;6456;42.680;23.260;2023-02-12T03:26:33;95548.78;;;2.63;51.00
12785;BME280;6456;42.680;23.260;2023-02-12T03:29:03;95560.81;;;2.64;51.05
12785;BME280;6456;42.680;23.260;2023-02-12T03:31:36;95548.91;;;2.61;51.41
12785;BME280;6456;42.680;23.260;2023-02-12T03:34:08;95538.69;;;2.50;51.38
12785;BME280;6456;42.680;23.260;2023-02-12T03:36:43;95498.78;;;2.41;51.03
12785;BME280;6456;42.680;23.260;2023-02-12T03:39:20;95551.47;;;2.71;51.40
12785;BME280;6456;42.680;23.260;2023-02-12T03:41:57;95536.06;;;2.59;51.85
12785;BME280;6456;42.680;23.260;2023-02-12T03:44:39;95542.50;;;2.65;52.02
12785;BME280;6456;42.680;23.260;2023-02-12T03:47:20;95530.22;;;2.57;51.85
12785;BME280;6456;42.680;23.260;2023-02-12T03:49:52;95543.81;;;2.69;52.03
12785;BME280;6456;42.680;23.260;2023-02-12T03:52:22;95542.63;;;2.64;52.06
12785;BME280;6456;42.680;23.260;2023-02-12T03:54:49;95548.47;;;2.66;52.32
12785;BME280;6456;42.680;23.260;2023-02-12T03:57:19;95549.22;;;2.58;52.91
12785;BME280;6456;42.680;23.260;2023-02-12T03:59:47;95549.19;;;2.68;52.86
12785;BME280;6456;42.680;23.260;2023-02-12T04:02:17;95552.19;;;2.73;53.29
12785;BME280;6456;42.680;23.260;2023-02-12T04:04:45;95520.22;;;2.63;53.19
12785;BME280;6456;42.680;23.260;2023-02-12T04:07:13;95541.63;;;2.74;52.95
12785;BME280;6456;42.680;23.260;2023-02-12T04:09:40;95539.69;;;2.76;53.14
12785;BME280;6456;42.680;23.260;2023-02-12T04:12:22;95528.88;;;2.81;53.12
12785;BME280;6456;42.680;23.260;2023-02-12T04:15:05;95544.84;;;2.86;53.11
12785;BME280;6456;42.680;23.260;2023-02-12T04:17:46;95516.06;;;2.70;52.85
12785;BME280;6456;42.680;23.260;2023-02-12T04:20:21;95562.91;;;2.87;53.11
12785;BME280;6456;42.680;23.260;2023-02-12T04:23:01;95513.69;;;2.49;53.16
12785;BME280;6456;42.680;23.260;2023-02-12T04:25:42;95563.88;;;2.86;53.03
12785;BME280;6456;42.680;23.260;2023-02-12T04:28:16;95539.47;;;2.70;53.37
12785;BME280;6456;42.680;23.260;2023-02-12T04:30:55;95562.25;;;2.76;53.53
12785;BME280;6456;42.680;23.260;2023-02-12T04:33:37;95524.22;;;2.47;53.16
12785;BME280;6456;42.680;23.260;2023-02-12T04:36:08;95562.38;;;2.84;53.24
12785;BME280;6456;42.680;23.260;2023-02-12T04:38:42;95505.38;;;2.45;53.00
12785;BME280;6456;42.680;23.260;2023-02-12T04:41:12;95508.63;;;2.47;52.88
12785;BME280;6456;42.680;23.260;2023-02-12T04:43:39;95543.03;;;2.59;53.02
12785;BME280;6456;42.680;23.260;2023-02-12T04:46:07;95545.88;;;2.66;53.21
12785;BME280;6456;42.680;23.260;2023-02-12T04:48:37;95582.38;;;2.74;53.87
12785;BME280;6456;42.680;23.260;2023-02-12T04:51:08;95556.19;;;2.57;53.98
12785;BME280;6456;42.680;23.260;2023-02-12T04:53:36;95551.13;;;2.46;54.28
12785;BME280;6456;42.680;23.260;2023-02-12T04:56:04;95583.75;;;2.68;53.76
12785;BME280;6456;42.680;23.260;2023-02-12T04:58:31;95538.22;;;2.27;53.62
12785;BME280;6456;42.680;23.260;2023-02-12T05:00:58;95569.06;;;2.49;54.02
12785;BME280;6456;42.680;23.260;2023-02-12T05:03:25;95581.75;;;2.62;54.20
12785;BME280;6456;42.680;23.260;2023-02-12T05:05:53;95538.19;;;2.37;54.24
12785;BME280;6456;42.680;23.260;2023-02-12T05:08:20;95598.03;;;2.54;52.59
12785;BME280;6456;42.680;23.260;2023-02-12T05:10:47;95563.63;;;2.24;54.36
12785;BME280;6456;42.680;23.260;2023-02-12T05:13:14;95599.97;;;2.43;54.43
12785;BME280;6456;42.680;23.260;2023-02-12T05:15:40;95606.53;;;2.37;55.10
12785;BME280;6456;42.680;23.260;2023-02-12T05:18:07;95596.41;;;2.44;54.62
12785;BME280;6456;42.680;23.260;2023-02-12T05:20:34;95559.53;;;2.12;54.47
12785;BME280;6456;42.680;23.260;2023-02-12T05:23:02;95602.28;;;2.36;54.14
12785;BME280;6456;42.680;23.260;2023-02-12T05:25:29;95620.59;;;2.44;54.68
12785;BME280;6456;42.680;23.260;2023-02-12T05:27:56;95635.50;;;2.42;55.12
12785;BME280;6456;42.680;23.260;2023-02-12T05:30:23;95619.13;;;2.32;56.06
12785;BME280;6456;42.680;23.260;2023-02-12T05:32:50;95631.72;;;2.18;58.14
12785;BME280;6456;42.680;23.260;2023-02-12T05:35:16;95621.72;;;2.23;58.32
12785;BME280;6456;42.680;23.260;2023-02-12T05:37:43;95628.44;;;2.25;58.29
12785;BME280;6456;42.680;23.260;2023-02-12T05:40:14;95631.28;;;2.22;60.50
12785;BME280;6456;42.680;23.260;2023-02-12T05:42:40;95675.69;;;2.10;62.90
12785;BME280;6456;42.680;23.260;2023-02-12T05:45:08;95640.28;;;1.99;63.71
12785;BME280;6456;42.680;23.260;2023-02-12T05:47:35;95621.56;;;1.86;64.14
12785;BME280;6456;42.680;23.260;2023-02-12T05:50:01;95620.88;;;1.84;64.35
12785;BME280;6456;42.680;23.260;2023-02-12T05:52:28;95636.59;;;1.92;64.47
12785;BME280;6456;42.680;23.260;2023-02-12T05:54:55;95651.91;;;2.05;64.51
12785;BME280;6456;42.680;23.260;2023-02-12T05:57:23;95650.00;;;2.07;64.80
12785;BME280;6456;42.680;23.260;2023-02-12T05:59:50;95641.53;;;2.05;65.33
12785;BME280;6456;42.680;23.260;2023-02-12T06:02:17;95645.38;;;2.10;65.77
12785;BME280;6456;42.680;23.260;2023-02-12T06:04:44;95655.19;;;2.07;67.19
12785;BME280;6456;42.680;23.260;2023-02-12T06:07:11;95664.91;;;2.05;67.57
12785;BME280;6456;42.680;23.260;2023-02-12T06:09:38;95638.94;;;1.95;69.26
12785;BME280;6456;42.680;23.260;2023-02-12T06:12:05;95629.22;;;1.87;71.47
12785;BME280;6456;42.680;23.260;2023-02-12T06:14:33;95642.06;;;2.08;72.34
12785;BME280;6456;42.680;23.260;2023-02-12T06:17:00;95651.91;;;2.14;72.57
12785;BME280;6456;42.680;23.260;2023-02-12T06:19:28;95648.09;;;2.18;73.13
12785;BME280;6456;42.680;23.260;2023-02-12T06:21:55;95661.47;;;2.23;73.62
12785;BME280;6456;42.680;23.260;2023-02-12T06:24:21;95626.06;;;2.03;74.18
12785;BME280;6456;42.680;23.260;2023-02-12T06:26:49;95660.69;;;2.23;77.91
12785;BME280;6456;42.680;23.260;2023-02-12T06:29:16;95634.28;;;2.08;80.66
12785;BME280;6456;42.680;23.260;2023-02-12T06:31:44;95598.47;;;1.83;82.67
12785;BME280;6456;42.680;23.260;2023-02-12T06:34:13;95659.72;;;2.14;82.76
12785;BME280;6456;42.680;23.260;2023-02-12T06:36:43;95648.66;;;2.12;83.45
12785;BME280;6456;42.680;23.260;2023-02-12T06:39:11;95642.38;;;2.05;83.60
12785;BME280;6456;42.680;23.260;2023-02-12T06:41:38;95655.19;;;2.16;83.57
12785;BME280;6456;42.680;23.260;2023-02-12T06:44:05;95656.03;;;2.17;83.88
12785;BME280;6456;42.680;23.260;2023-02-12T06:46:34;95650.41;;;2.12;84.37
12785;BME280;6456;42.680;23.260;2023-02-12T06:49:04;95610.66;;;1.92;85.19
12785;BME280;6456;42.680;23.260;2023-02-12T06:51:31;95577.28;;;1.78;84.79
12785;BME280;6456;42.680;23.260;2023-02-12T06:53:58;95634.69;;;2.13;84.16
12785;BME280;6456;42.680;23.260;2023-02-12T06:56:25;95662.72;;;2.29;83.06
12785;BME280;6456;42.680;23.260;2023-02-12T06:58:54;95641.78;;;2.21;82.83
12785;BME280;6456;42.680;23.260;2023-02-12T07:01:22;95656.28;;;2.23;82.22
12785;BME280;6456;42.680;23.260;2023-02-12T07:03:51;95651.66;;;2.17;81.71
12785;BME280;6456;42.680;23.260;2023-02-12T07:06:20;95661.34;;;2.34;81.83
12785;BME280;6456;42.680;23.260;2023-02-12T07:08:47;95669.81;;;2.36;81.40
12785;BME280;6456;42.680;23.260;2023-02-12T07:11:15;95660.81;;;2.40;80.66
12785;BME280;6456;42.680;23.260;2023-02-12T07:13:43;95623.78;;;2.19;80.65
12785;BME280;6456;42.680;23.260;2023-02-12T07:16:17;95645.09;;;2.32;79.86
12785;BME280;6456;42.680;23.260;2023-02-12T07:18:44;95659.97;;;2.49;79.78
12785;BME280;6456;42.680;23.260;2023-02-12T07:21:12;95657.09;;;2.52;79.31
12785;BME280;6456;42.680;23.260;2023-02-12T07:23:41;95665.03;;;2.51;78.79
12785;BME280;6456;42.680;23.260;2023-02-12T07:26:10;95667.91;;;2.48;79.08
12785;BME280;6456;42.680;23.260;2023-02-12T07:28:37;95662.44;;;2.51;79.21
12785;BME280;6456;42.680;23.260;2023-02-12T07:31:05;95667.63;;;2.51;78.94
12785;BME280;6456;42.680;23.260;2023-02-12T07:33:33;95657.13;;;2.43;79.22
12785;BME280;6456;42.680;23.260;2023-02-12T07:36:00;95660.25;;;2.37;79.46
12785;BME280;6456;42.680;23.260;2023-02-12T07:38:27;95671.19;;;2.50;79.48
12785;BME280;6456;42.680;23.260;2023-02-12T07:41:05;95677.91;;;2.52;79.30
12785;BME280;6456;42.680;23.260;2023-02-12T07:43:32;95679.41;;;2.45;79.36
12785;BME280;6456;42.680;23.260;2023-02-12T07:46:07;95675.44;;;2.22;81.01
12785;BME280;6456;42.680;23.260;2023-02-12T07:48:33;95643.56;;;1.82;83.75
12785;BME280;6456;42.680;23.260;2023-02-12T07:51:03;95691.94;;;2.02;84.39
12785;BME280;6456;42.680;23.260;2023-02-12T07:53:30;95683.03;;;1.85;85.66
12785;BME280;6456;42.680;23.260;2023-02-12T07:56:05;95691.38;;;1.89;86.36
12785;BME280;6456;42.680;23.260;2023-02-12T07:58:32;95691.94;;;1.92;86.63
12785;BME280;6456;42.680;23.260;2023-02-12T08:00:59;95678.63;;;1.67;87.88
12785;BME280;6456;42.680;23.260;2023-02-12T08:03:27;95695.03;;;1.67;89.23
12785;BME280;6456;42.680;23.260;2023-02-12T08:05:54;95700.75;;;1.71;89.30
12785;BME280;6456;42.680;23.260;2023-02-12T08:08:21;95701.28;;;1.65;89.72
12785;BME280;6456;42.680;23.260;2023-02-12T08:10:48;95689.38;;;1.53;90.74
12785;BME280;6456;42.680;23.260;2023-02-12T08:13:16;95697.97;;;1.53;91.34
12785;BME280;6456;42.680;23.260;2023-02-12T08:15:43;95697.47;;;1.69;91.20
12785;BME280;6456;42.680;23.260;2023-02-12T08:18:10;95682.16;;;1.66;90.80
12785;BME280;6456;42.680;23.260;2023-02-12T08:20:36;95698.47;;;1.87;89.96
12785;BME280;6456;42.680;23.260;2023-02-12T08:23:03;95696.97;;;1.94;88.96
12785;BME280;6456;42.680;23.260;2023-02-12T08:25:30;95696.47;;;2.00;88.80
12785;BME280;6456;42.680;23.260;2023-02-12T08:27:57;95652.25;;;1.62;88.44
12785;BME280;6456;42.680;23.260;2023-02-12T08:30:26;95713.66;;;2.01;88.60
12785;BME280;6456;42.680;23.260;2023-02-12T08:32:53;95654.16;;;1.60;89.10
12785;BME280;6456;42.680;23.260;2023-02-12T08:35:20;95668.00;;;1.79;88.43
12785;BME280;6456;42.680;23.260;2023-02-12T08:37:47;95676.06;;;1.86;88.47
12785;BME280;6456;42.680;23.260;2023-02-12T08:40:14;95690.44;;;1.90;88.64
12785;BME280;6456;42.680;23.260;2023-02-12T08:42:40;95699.06;;;2.00;88.54
12785;BME280;6456;42.680;23.260;2023-02-12T08:45:08;95720.00;;;2.27;87.68
12785;BME280;6456;42.680;23.260;2023-02-12T08:47:36;95729.72;;;2.35;87.51
12785;BME280;6456;42.680;23.260;2023-02-12T08:50:04;95701.94;;;2.16;86.99
12785;BME280;6456;42.680;23.260;2023-02-12T08:52:33;95738.03;;;2.38;86.84
12785;BME280;6456;42.680;23.260;2023-02-12T08:55:00;95737.09;;;2.39;86.75
12785;BME280;6456;42.680;23.260;2023-02-12T08:57:27;95736.25;;;2.39;86.20
12785;BME280;6456;42.680;23.260;2023-02-12T08:59:54;95694.41;;;2.13;86.64
12785;BME280;6456;42.680;23.260;2023-02-12T09:02:20;95740.38;;;2.41;86.73
12785;BME280;6456;42.680;23.260;2023-02-12T09:04:49;95746.81;;;2.37;86.87
12785;BME280;6456;42.680;23.260;2023-02-12T09:07:16;95734.22;;;2.42;87.43
12785;BME280;6456;42.680;23.260;2023-02-12T09:09:48;95713.81;;;2.28;87.50
12785;BME280;6456;42.680;23.260;2023-02-12T09:12:15;95728.31;;;2.31;86.94
12785;BME280;6456;42.680;23.260;2023-02-12T09:14:41;95743.66;;;2.43;86.88
12785;BME280;6456;42.680;23.260;2023-02-12T09:17:08;95764.47;;;2.53;87.02
12785;BME280;6456;42.680;23.260;2023-02-12T09:19:35;95766.75;;;2.56;86.87
12785;BME280;6456;42.680;23.260;2023-02-12T09:22:03;95691.13;;;2.11;87.10
12785;BME280;6456;42.680;23.260;2023-02-12T09:24:30;95764.16;;;2.56;87.11
12785;BME280;6456;42.680;23.260;2023-02-12T09:26:57;95677.47;;;2.09;87.93
12785;BME280;6456;42.680;23.260;2023-02-12T09:29:24;95693.06;;;2.28;87.21
12785;BME280;6456;42.680;23.260;2023-02-12T09:31:51;95675.28;;;2.33;86.09
12785;BME280;6456;42.680;23.260;2023-02-12T09:34:18;95759.38;;;2.90;85.91
12785;BME280;6456;42.680;23.260;2023-02-12T09:36:46;95750.06;;;2.97;85.50
12785;BME280;6456;42.680;23.260;2023-02-12T09:39:14;95736.09;;;2.88;84.52
12785;BME280;6456;42.680;23.260;2023-02-12T09:44:45;95767.81;;;3.11;84.69
12785;BME280;6456;42.680;23.260;2023-02-12T09:47:18;95735.16;;;2.89;84.64
12785;BME280;6456;42.680;23.260;2023-02-12T09:49:59;95764.13;;;3.13;84.28
12785;BME280;6456;42.680;23.260;2023-02-12T09:52:29;95766.75;;;3.23;83.34
12785;BME280;6456;42.680;23.260;2023-02-12T09:54:57;95774.41;;;3.24;82.92
12785;BME280;6456;42.680;23.260;2023-02-12T09:57:27;95780.97;;;3.19;82.83
12785;BME280;6456;42.680;23.260;2023-02-12T10:00:00;95762.94;;;3.08;82.47
12785;BME280;6456;42.680;23.260;2023-02-12T10:02:28;95777.97;;;3.14;82.38
12785;BME280;6456;42.680;23.260;2023-02-12T10:04:55;95781.53;;;3.13;83.13
12785;BME280;6456;42.680;23.260;2023-02-12T10:07:32;95781.94;;;3.08;83.03
12785;BME280;6456;42.680;23.260;2023-02-12T10:10:25;95779.75;;;3.04;83.04
12785;BME280;6456;42.680;23.260;2023-02-12T10:12:56;95784.00;;;3.05;83.46
12785;BME280;6456;42.680;23.260;2023-02-12T10:15:37;95748.72;;;2.93;83.43
12785;BME280;6456;42.680;23.260;2023-02-12T10:18:25;95784.00;;;3.14;83.48
12785;BME280;6456;42.680;23.260;2023-02-12T10:21:21;95716.31;;;2.78;82.96
12785;BME280;6456;42.680;23.260;2023-02-12T10:24:03;95774.66;;;3.21;83.33
12785;BME280;6456;42.680;23.260;2023-02-12T10:26:36;95765.38;;;3.19;83.43
12785;BME280;6456;42.680;23.260;2023-02-12T10:29:11;95737.88;;;3.07;83.23
12785;BME280;6456;42.680;23.260;2023-02-12T10:31:41;95770.53;;;3.38;83.50
12785;BME280;6456;42.680;23.260;2023-02-12T10:34:15;95753.69;;;3.42;82.66
12785;BME280;6456;42.680;23.260;2023-02-12T10:36:45;95770.47;;;3.57;82.78
12785;BME280;6456;42.680;23.260;2023-02-12T10:39:19;95773.75;;;3.59;81.98
12785;BME280;6456;42.680;23.260;2023-02-12T10:41:54;95776.75;;;3.64;82.00
12785;BME280;6456;42.680;23.260;2023-02-12T10:44:22;95777.69;;;3.73;81.75
12785;BME280;6456;42.680;23.260;2023-02-12T10:46:49;95774.84;;;3.94;81.16
12785;BME280;6456;42.680;23.260;2023-02-12T10:49:17;95773.91;;;3.95;81.60
12785;BME280;6456;42.680;23.260;2023-02-12T10:52:02;95781.44;;;4.25;79.13
12785;BME280;6456;42.680;23.260;2023-02-12T10:54:33;95772.94;;;4.23;77.77
12785;BME280;6456;42.680;23.260;2023-02-12T10:57:08;95756.31;;;4.24;77.74
12785;BME280;6456;42.680;23.260;2023-02-12T10:59:36;95777.19;;;4.41;77.12
12785;BME280;6456;42.680;23.260;2023-02-12T11:02:13;95772.81;;;4.42;76.62
12785;BME280;6456;42.680;23.260;2023-02-12T11:04:41;95779.59;;;4.35;77.78
12785;BME280;6456;42.680;23.260;2023-02-12T11:07:08;95778.03;;;4.42;77.31
12785;BME280;6456;42.680;23.260;2023-02-12T11:09:37;95783.06;;;4.43;77.30
12785;BME280;6456;42.680;23.260;2023-02-12T11:12:19;95765.94;;;4.41;76.53
12785;BME280;6456;42.680;23.260;2023-02-12T11:14:51;95750.16;;;4.25;76.82
12785;BME280;6456;42.680;23.260;2023-02-12T11:17:23;95781.00;;;4.47;76.04
12785;BME280;6456;42.680;23.260;2023-02-12T11:20:02;95781.31;;;4.44;76.68
12785;BME280;6456;42.680;23.260;2023-02-12T11:22:30;95772.66;;;4.61;75.98
12785;BME280;6456;42.680;23.260;2023-02-12T11:24:59;95763.16;;;4.70;75.44
12785;BME280;6456;42.680;23.260;2023-02-12T11:27:29;95773.44;;;4.89;74.58
12785;BME280;6456;42.680;23.260;2023-02-12T11:30:12;95776.72;;;5.08;73.68
12785;BME280;6456;42.680;23.260;2023-02-12T11:32:42;95773.00;;;4.93;72.19
12785;BME280;6456;42.680;23.260;2023-02-12T11:35:12;95773.75;;;4.68;73.50
12785;BME280;6456;42.680;23.260;2023-02-12T11:37:43;95770.91;;;4.79;73.32
12785;BME280;6456;42.680;23.260;2023-02-12T11:40:21;95777.31;;;5.02;72.66
12785;BME280;6456;42.680;23.260;2023-02-12T11:42:53;95778.13;;;5.03;72.97
12785;BME280;6456;42.680;23.260;2023-02-12T11:45:25;95730.28;;;4.77;73.62
12785;BME280;6456;42.680;23.260;2023-02-12T11:47:54;95724.63;;;4.81;72.62
12785;BME280;6456;42.680;23.260;2023-02-12T11:50:24;95743.63;;;4.91;72.76
12785;BME280;6456;42.680;23.260;2023-02-12T11:52:55;95727.00;;;4.92;72.06
12785;BME280;6456;42.680;23.260;2023-02-12T11:55:34;95767.41;;;5.06;71.80
12785;BME280;6456;42.680;23.260;2023-02-12T11:58:14;95759.78;;;4.95;72.30
12785;BME280;6456;42.680;23.260;2023-02-12T12:00:46;95761.38;;;4.70;72.97
12785;BME280;6456;42.680;23.260;2023-02-12T12:03:20;95722.69;;;4.30;73.61
12785;BME280;6456;42.680;23.260;2023-02-12T12:05:50;95768.34;;;4.52;74.63
12785;BME280;6456;42.680;23.260;2023-02-12T12:08:21;95758.69;;;4.62;73.78
12785;BME280;6456;42.680;23.260;2023-02-12T12:10:55;95782.59;;;4.93;73.17
12785;BME280;6456;42.680;23.260;2023-02-12T12:13:30;95762.41;;;4.95;72.96
12785;BME280;6456;42.680;23.260;2023-02-12T12:16:05;95756.00;;;4.72;72.85
12785;BME280;6456;42.680;23.260;2023-02-12T12:18:55;95789.31;;;4.78;73.09
12785;BME280;6456;42.680;23.260;2023-02-12T12:21:46;95780.75;;;4.85;73.52
12785;BME280;6456;42.680;23.260;2023-02-12T12:24:20;95783.84;;;5.06;72.58
12785;BME280;6456;42.680;23.260;2023-02-12T12:26:59;95762.19;;;5.06;71.56
12785;BME280;6456;42.680;23.260;2023-02-12T12:29:41;95787.34;;;5.15;71.26
12785;BME280;6456;42.680;23.260;2023-02-12T12:32:11;95785.03;;;5.30;70.74
12785;BME280;6456;42.680;23.260;2023-02-12T12:34:40;95743.16;;;5.13;70.83
12785;BME280;6456;42.680;23.260;2023-02-12T12:37:25;95760.03;;;5.27;70.95
12785;BME280;6456;42.680;23.260;2023-02-12T12:40:07;95753.75;;;5.38;70.36
12785;BME280;6456;42.680;23.260;2023-02-12T12:48:40;95796.47;;;5.37;70.52
12785;BME280;6456;42.680;23.260;2023-02-12T12:51:22;95795.81;;;5.35;70.35
12785;BME280;6456;42.680;23.260;2023-02-12T12:54:05;95795.22;;;5.41;70.40
12785;BME280;6456;42.680;23.260;2023-02-12T12:56:48;95776.00;;;5.24;70.18
12785;BME280;6456;42.680;23.260;2023-02-12T12:59:43;95805.91;;;5.30;70.54
12785;BME280;6456;42.680;23.260;2023-02-12T13:02:48;95804.88;;;5.23;71.96
12785;BME280;6456;42.680;23.260;2023-02-12T13:05:40;95799.34;;;5.26;71.51
12785;BME280;6456;42.680;23.260;2023-02-12T13:08:25;95805.31;;;5.36;71.30
12785;BME280;6456;42.680;23.260;2023-02-12T13:10:58;95810.13;;;5.48;70.82
12785;BME280;6456;42.680;23.260;2023-02-12T13:13:30;95811.63;;;5.51;70.57
12785;BME280;6456;42.680;23.260;2023-02-12T13:16:03;95812.44;;;5.34;70.80
12785;BME280;6456;42.680;23.260;2023-02-12T13:18:45;95795.97;;;5.33;71.35
12785;BME280;6456;42.680;23.260;2023-02-12T13:21:21;95816.97;;;5.49;70.64
12785;BME280;6456;42.680;23.260;2023-02-12T13:23:57;95799.25;;;5.35;71.16
12785;BME280;6456;42.680;23.260;2023-02-12T13:26:32;95803.94;;;5.32;71.18
12785;BME280;6456;42.680;23.260;2023-02-12T13:29:06;95817.16;;;5.30;71.11
12785;BME280;6456;42.680;23.260;2023-02-12T13:31:39;95820.13;;;5.35;71.44
12785;BME280;6456;42.680;23.260;2023-02-12T13:34:12;95817.16;;;5.30;71.60
12785;BME280;6456;42.680;23.260;2023-02-12T13:36:40;95818.84;;;5.39;71.72
12785;BME280;6456;42.680;23.260;2023-02-12T13:39:17;95829.81;;;5.43;71.77